Terminal Aerodrome Forecast
Issued by NWS Cleveland, OH

Home | Current Version | Previous Version | Graphics & Text | Print | Product List | Glossary On
Versions: 1 2 3 4 5 6 7 8 9 10 11 12 13 14 15 16 17 18 19 20 21 22 23 24
000
FTUS41 KCLE 271729
TAFMFD
TAF
KMFD 271729Z 2718/2818 22015G25KT P6SM SCT050
     FM280000 18005KT P6SM OVC250
     FM281000 18005KT P6SM OVC100
     FM281400 17009KT P6SM VCSH OVC035
     FM281600 17009KT 5SM -SHRA BR OVC035=

USA.gov is the U.S. government's official web portal to all federal, state and local government web resources and services.